sensor_id;sensor_type;location;lat;lon;timestamp;P1;durP1;ratioP1;P2;durP2;ratioP2
47367;SDS011;34646;47.964;7.982;2024-02-26T00:00:40;2.15;;;0.63;;
47367;SDS011;34646;47.964;7.982;2024-02-26T00:06:41;2.70;;;0.70;;
47367;SDS011;34646;47.964;7.982;2024-02-26T00:12:42;3.13;;;0.55;;
47367;SDS011;34646;47.964;7.982;2024-02-26T00:18:43;1.70;;;1.15;;
47367;SDS011;34646;47.964;7.982;2024-02-26T00:24:43;1.17;;;0.43;;
47367;SDS011;34646;47.964;7.982;2024-02-26T00:30:44;2.45;;;0.90;;
47367;SDS011;34646;47.964;7.982;2024-02-26T00:36:45;1.83;;;0.68;;
47367;SDS011;34646;47.964;7.982;2024-02-26T00:42:46;2.00;;;0.60;;
47367;SDS011;34646;47.964;7.982;2024-02-26T00:48:48;2.80;;;0.50;;
47367;SDS011;34646;47.964;7.982;2024-02-26T00:54:48;2.13;;;0.67;;
47367;SDS011;34646;47.964;7.982;2024-02-26T01:00:49;1.60;;;0.57;;
47367;SDS011;34646;47.964;7.982;2024-02-26T01:06:50;2.03;;;0.40;;
47367;SDS011;34646;47.964;7.982;2024-02-26T01:12:51;3.03;;;0.80;;
47367;SDS011;34646;47.964;7.982;2024-02-26T01:18:52;1.60;;;0.60;;
47367;SDS011;34646;47.964;7.982;2024-02-26T01:24:53;1.95;;;0.50;;
47367;SDS011;34646;47.964;7.982;2024-02-26T01:30:54;2.85;;;0.60;;
47367;SDS011;34646;47.964;7.982;2024-02-26T01:36:55;2.22;;;0.57;;
47367;SDS011;34646;47.964;7.982;2024-02-26T01:42:56;2.03;;;0.60;;
47367;SDS011;34646;47.964;7.982;2024-02-26T01:48:57;2.67;;;0.83;;
47367;SDS011;34646;47.964;7.982;2024-02-26T01:54:58;1.70;;;0.55;;
47367;SDS011;34646;47.964;7.982;2024-02-26T02:01:01;2.42;;;0.60;;
47367;SDS011;34646;47.964;7.982;2024-02-26T02:07:03;2.47;;;0.90;;
47367;SDS011;34646;47.964;7.982;2024-02-26T02:19:05;1.70;;;0.80;;
47367;SDS011;34646;47.964;7.982;2024-02-26T02:25:06;2.05;;;0.60;;
47367;SDS011;34646;47.964;7.982;2024-02-26T02:31:07;1.33;;;0.50;;
47367;SDS011;34646;47.964;7.982;2024-02-26T02:37:08;1.30;;;0.63;;
47367;SDS011;34646;47.964;7.982;2024-02-26T02:43:09;0.93;;;0.40;;
47367;SDS011;34646;47.964;7.982;2024-02-26T02:49:10;2.20;;;0.60;;
47367;SDS011;34646;47.964;7.982;2024-02-26T02:55:12;2.30;;;0.70;;
47367;SDS011;34646;47.964;7.982;2024-02-26T03:01:13;1.35;;;0.50;;
47367;SDS011;34646;47.964;7.982;2024-02-26T03:07:13;1.57;;;0.40;;
47367;SDS011;34646;47.964;7.982;2024-02-26T03:13:14;0.83;;;0.40;;
47367;SDS011;34646;47.964;7.982;2024-02-26T03:19:16;1.40;;;0.45;;
47367;SDS011;34646;47.964;7.982;2024-02-26T03:25:17;2.55;;;0.55;;
47367;SDS011;34646;47.964;7.982;2024-02-26T03:31:18;2.60;;;0.70;;
47367;SDS011;34646;47.964;7.982;2024-02-26T03:37:19;2.15;;;0.85;;
47367;SDS011;34646;47.964;7.982;2024-02-26T03:43:21;0.88;;;0.38;;
47367;SDS011;34646;47.964;7.982;2024-02-26T03:49:22;1.73;;;0.60;;
47367;SDS011;34646;47.964;7.982;2024-02-26T03:55:23;1.55;;;0.77;;
47367;SDS011;34646;47.964;7.982;2024-02-26T04:01:27;2.67;;;0.50;;
47367;SDS011;34646;47.964;7.982;2024-02-26T04:07:28;0.80;;;0.40;;
47367;SDS011;34646;47.964;7.982;2024-02-26T04:13:29;2.10;;;0.50;;
47367;SDS011;34646;47.964;7.982;2024-02-26T04:19:30;2.45;;;0.98;;
47367;SDS011;34646;47.964;7.982;2024-02-26T04:25:31;0.47;;;0.30;;
47367;SDS011;34646;47.964;7.982;2024-02-26T04:31:31;1.33;;;0.60;;
47367;SDS011;34646;47.964;7.982;2024-02-26T04:37:33;1.00;;;0.30;;
47367;SDS011;34646;47.964;7.982;2024-02-26T04:43:35;1.30;;;0.47;;
47367;SDS011;34646;47.964;7.982;2024-02-26T04:49:41;0.98;;;0.50;;
47367;SDS011;34646;47.964;7.982;2024-02-26T04:55:42;2.57;;;0.40;;
47367;SDS011;34646;47.964;7.982;2024-02-26T05:01:42;1.23;;;0.40;;
47367;SDS011;34646;47.964;7.982;2024-02-26T05:07:43;1.70;;;0.40;;
47367;SDS011;34646;47.964;7.982;2024-02-26T05:13:45;1.98;;;0.75;;
47367;SDS011;34646;47.964;7.982;2024-02-26T05:19:45;1.60;;;0.50;;
47367;SDS011;34646;47.964;7.982;2024-02-26T05:25:46;0.63;;;0.30;;
47367;SDS011;34646;47.964;7.982;2024-02-26T05:31:48;1.15;;;0.47;;
47367;SDS011;34646;47.964;7.982;2024-02-26T05:37:49;1.83;;;0.40;;
47367;SDS011;34646;47.964;7.982;2024-02-26T05:43:50;1.67;;;0.37;;
47367;SDS011;34646;47.964;7.982;2024-02-26T05:49:51;0.70;;;0.40;;
47367;SDS011;34646;47.964;7.982;2024-02-26T05:55:51;0.93;;;0.40;;
47367;SDS011;34646;47.964;7.982;2024-02-26T06:01:52;1.63;;;0.73;;
47367;SDS011;34646;47.964;7.982;2024-02-26T06:07:53;23.37;;;13.30;;
47367;SDS011;34646;47.964;7.982;2024-02-26T06:13:54;1.47;;;1.00;;
47367;SDS011;34646;47.964;7.982;2024-02-26T06:19:55;4.93;;;2.20;;
47367;SDS011;34646;47.964;7.982;2024-02-26T06:25:56;11.55;;;5.43;;
47367;SDS011;34646;47.964;7.982;2024-02-26T06:31:57;10.03;;;4.60;;
47367;SDS011;34646;47.964;7.982;2024-02-26T06:37:58;11.67;;;4.73;;
47367;SDS011;34646;47.964;7.982;2024-02-26T06:43:59;10.10;;;4.57;;
47367;SDS011;34646;47.964;7.982;2024-02-26T06:50:00;9.75;;;4.03;;
47367;SDS011;34646;47.964;7.982;2024-02-26T06:56:01;7.72;;;4.13;;
47367;SDS011;34646;47.964;7.982;2024-02-26T07:02:02;8.87;;;3.60;;
47367;SDS011;34646;47.964;7.982;2024-02-26T07:08:03;9.53;;;4.20;;
47367;SDS011;34646;47.964;7.982;2024-02-26T07:14:04;9.77;;;4.25;;
47367;SDS011;34646;47.964;7.982;2024-02-26T07:20:05;10.53;;;3.60;;
47367;SDS011;34646;47.964;7.982;2024-02-26T07:26:07;6.95;;;3.00;;
47367;SDS011;34646;47.964;7.982;2024-02-26T07:32:08;9.13;;;3.90;;
47367;SDS011;34646;47.964;7.982;2024-02-26T07:38:10;6.57;;;3.78;;
47367;SDS011;34646;47.964;7.982;2024-02-26T07:44:13;7.30;;;3.45;;
47367;SDS011;34646;47.964;7.982;2024-02-26T07:50:14;7.90;;;3.27;;
47367;SDS011;34646;47.964;7.982;2024-02-26T07:56:15;6.90;;;3.15;;
47367;SDS011;34646;47.964;7.982;2024-02-26T08:02:16;5.93;;;3.13;;
47367;SDS011;34646;47.964;7.982;2024-02-26T08:08:18;5.30;;;2.75;;
47367;SDS011;34646;47.964;7.982;2024-02-26T08:14:19;4.57;;;2.83;;
47367;SDS011;34646;47.964;7.982;2024-02-26T08:20:20;5.00;;;2.35;;
47367;SDS011;34646;47.964;7.982;2024-02-26T08:26:21;5.33;;;2.83;;
47367;SDS011;34646;47.964;7.982;2024-02-26T08:32:24;6.22;;;2.80;;
47367;SDS011;34646;47.964;7.982;2024-02-26T08:38:25;4.10;;;1.93;;
47367;SDS011;34646;47.964;7.982;2024-02-26T08:44:26;5.95;;;2.70;;
47367;SDS011;34646;47.964;7.982;2024-02-26T08:50:26;5.50;;;2.50;;
47367;SDS011;34646;47.964;7.982;2024-02-26T08:56:27;4.03;;;2.20;;
47367;SDS011;34646;47.964;7.982;2024-02-26T09:02:28;4.80;;;2.35;;
47367;SDS011;34646;47.964;7.982;2024-02-26T09:08:30;4.50;;;2.35;;
47367;SDS011;34646;47.964;7.982;2024-02-26T09:14:31;4.97;;;2.63;;
47367;SDS011;34646;47.964;7.982;2024-02-26T09:20:32;5.83;;;2.67;;
47367;SDS011;34646;47.964;7.982;2024-02-26T09:26:33;4.93;;;2.08;;
47367;SDS011;34646;47.964;7.982;2024-02-26T09:32:34;4.07;;;2.10;;
47367;SDS011;34646;47.964;7.982;2024-02-26T09:38:35;6.77;;;2.07;;
47367;SDS011;34646;47.964;7.982;2024-02-26T09:44:39;3.33;;;1.98;;
47367;SDS011;34646;47.964;7.982;2024-02-26T09:50:42;3.38;;;1.60;;
47367;SDS011;34646;47.964;7.982;2024-02-26T09:56:44;5.47;;;2.47;;
47367;SDS011;34646;47.964;7.982;2024-02-26T10:02:49;2.92;;;1.80;;
47367;SDS011;34646;47.964;7.982;2024-02-26T10:08:51;5.15;;;2.13;;
47367;SDS011;34646;47.964;7.982;2024-02-26T10:14:54;3.47;;;1.85;;
47367;SDS011;34646;47.964;7.982;2024-02-26T10:21:01;4.00;;;2.15;;
47367;SDS011;34646;47.964;7.982;2024-02-26T10:27:02;3.78;;;1.75;;
47367;SDS011;34646;47.964;7.982;2024-02-26T10:33:03;3.80;;;1.70;;
47367;SDS011;34646;47.964;7.982;2024-02-26T10:39:04;4.07;;;2.03;;
47367;SDS011;34646;47.964;7.982;2024-02-26T10:45:06;4.97;;;1.67;;
47367;SDS011;34646;47.964;7.982;2024-02-26T10:51:09;4.55;;;2.03;;
47367;SDS011;34646;47.964;7.982;2024-02-26T10:57:14;4.03;;;1.85;;
47367;SDS011;34646;47.964;7.982;2024-02-26T11:03:16;3.67;;;1.40;;
47367;SDS011;34646;47.964;7.982;2024-02-26T11:09:19;3.65;;;1.65;;
47367;SDS011;34646;47.964;7.982;2024-02-26T11:15:20;2.50;;;1.30;;
47367;SDS011;34646;47.964;7.982;2024-02-26T11:21:22;3.72;;;1.50;;
47367;SDS011;34646;47.964;7.982;2024-02-26T11:27:29;2.65;;;1.50;;
47367;SDS011;34646;47.964;7.982;2024-02-26T11:33:34;2.40;;;1.40;;
47367;SDS011;34646;47.964;7.982;2024-02-26T11:39:36;4.72;;;1.55;;
47367;SDS011;34646;47.964;7.982;2024-02-26T11:51:40;2.90;;;1.42;;
47367;SDS011;34646;47.964;7.982;2024-02-26T11:57:42;3.15;;;1.42;;
47367;SDS011;34646;47.964;7.982;2024-02-26T12:03:43;1.80;;;1.07;;
47367;SDS011;34646;47.964;7.982;2024-02-26T12:09:44;2.35;;;1.35;;
47367;SDS011;34646;47.964;7.982;2024-02-26T12:15:54;2.53;;;1.08;;
47367;SDS011;34646;47.964;7.982;2024-02-26T12:21:57;5.25;;;1.17;;
47367;SDS011;34646;47.964;7.982;2024-02-26T12:27:58;3.60;;;0.90;;
47367;SDS011;34646;47.964;7.982;2024-02-26T12:34:00;2.75;;;0.80;;
47367;SDS011;34646;47.964;7.982;2024-02-26T12:40:01;6.28;;;1.10;;
47367;SDS011;34646;47.964;7.982;2024-02-26T12:46:05;2.43;;;0.73;;
47367;SDS011;34646;47.964;7.982;2024-02-26T12:52:06;3.22;;;1.00;;
47367;SDS011;34646;47.964;7.982;2024-02-26T12:58:07;4.13;;;1.40;;
47367;SDS011;34646;47.964;7.982;2024-02-26T13:04:08;2.75;;;1.08;;
47367;SDS011;34646;47.964;7.982;2024-02-26T13:10:10;4.32;;;1.10;;
47367;SDS011;34646;47.964;7.982;2024-02-26T13:22:14;2.50;;;0.80;;
47367;SDS011;34646;47.964;7.982;2024-02-26T13:28:18;4.13;;;1.08;;
47367;SDS011;34646;47.964;7.982;2024-02-26T13:46:26;3.30;;;0.45;;
47367;SDS011;34646;47.964;7.982;2024-02-26T13:52:27;1.30;;;0.43;;
47367;SDS011;34646;47.964;7.982;2024-02-26T13:58:28;3.15;;;0.60;;
47367;SDS011;34646;47.964;7.982;2024-02-26T14:04:29;3.37;;;1.07;;
47367;SDS011;34646;47.964;7.982;2024-02-26T14:10:30;5.90;;;0.83;;
47367;SDS011;34646;47.964;7.982;2024-02-26T14:16:32;4.22;;;0.80;;
47367;SDS011;34646;47.964;7.982;2024-02-26T14:22:33;2.40;;;0.60;;
47367;SDS011;34646;47.964;7.982;2024-02-26T14:34:35;9.35;;;1.15;;
47367;SDS011;34646;47.964;7.982;2024-02-26T14:40:36;9.93;;;1.30;;
47367;SDS011;34646;47.964;7.982;2024-02-26T14:46:37;4.72;;;1.00;;
47367;SDS011;34646;47.964;7.982;2024-02-26T14:52:38;6.68;;;1.05;;
47367;SDS011;34646;47.964;7.982;2024-02-26T14:58:39;7.90;;;0.80;;
47367;SDS011;34646;47.964;7.982;2024-02-26T15:04:40;5.63;;;1.10;;
47367;SDS011;34646;47.964;7.982;2024-02-26T15:10:41;8.63;;;1.30;;
47367;SDS011;34646;47.964;7.982;2024-02-26T15:16:48;12.15;;;1.02;;
47367;SDS011;34646;47.964;7.982;2024-02-26T15:22:50;7.65;;;1.30;;
47367;SDS011;34646;47.964;7.982;2024-02-26T15:28:51;7.53;;;1.95;;
47367;SDS011;34646;47.964;7.982;2024-02-26T15:34:53;9.50;;;0.95;;
47367;SDS011;34646;47.964;7.982;2024-02-26T15:40:54;7.88;;;1.15;;
47367;SDS011;34646;47.964;7.982;2024-02-26T15:46:55;5.10;;;1.02;;
47367;SDS011;34646;47.964;7.982;2024-02-26T15:52:56;7.20;;;0.75;;
47367;SDS011;34646;47.964;7.982;2024-02-26T15:58:58;6.15;;;1.20;;
47367;SDS011;34646;47.964;7.982;2024-02-26T16:04:59;9.10;;;1.10;;
47367;SDS011;34646;47.964;7.982;2024-02-26T16:11:00;11.93;;;1.75;;
47367;SDS011;34646;47.964;7.982;2024-02-26T16:17:05;6.95;;;0.90;;
47367;SDS011;34646;47.964;7.982;2024-02-26T16:23:21;8.55;;;0.90;;
47367;SDS011;34646;47.964;7.982;2024-02-26T16:29:22;5.97;;;0.98;;
47367;SDS011;34646;47.964;7.982;2024-02-26T16:35:23;8.75;;;1.23;;
47367;SDS011;34646;47.964;7.982;2024-02-26T16:41:24;7.55;;;1.38;;
47367;SDS011;34646;47.964;7.982;2024-02-26T16:47:25;6.43;;;1.40;;
47367;SDS011;34646;47.964;7.982;2024-02-26T16:53:26;11.88;;;1.80;;
47367;SDS011;34646;47.964;7.982;2024-02-26T16:59:28;19.67;;;1.40;;
47367;SDS011;34646;47.964;7.982;2024-02-26T17:05:29;6.95;;;1.65;;
47367;SDS011;34646;47.964;7.982;2024-02-26T17:11:33;7.72;;;1.23;;
47367;SDS011;34646;47.964;7.982;2024-02-26T17:17:36;9.15;;;1.50;;
47367;SDS011;34646;47.964;7.982;2024-02-26T17:23:37;4.60;;;1.05;;
47367;SDS011;34646;47.964;7.982;2024-02-26T17:29:38;4.65;;;1.00;;
47367;SDS011;34646;47.964;7.982;2024-02-26T17:35:39;8.38;;;1.50;;
47367;SDS011;34646;47.964;7.982;2024-02-26T17:41:40;7.33;;;1.70;;
47367;SDS011;34646;47.964;7.982;2024-02-26T17:47:41;6.60;;;1.15;;
47367;SDS011;34646;47.964;7.982;2024-02-26T17:53:42;13.73;;;1.98;;
47367;SDS011;34646;47.964;7.982;2024-02-26T17:59:45;9.85;;;1.95;;
47367;SDS011;34646;47.964;7.982;2024-02-26T18:05:46;22.90;;;2.42;;
47367;SDS011;34646;47.964;7.982;2024-02-26T18:11:48;16.25;;;2.00;;
47367;SDS011;34646;47.964;7.982;2024-02-26T18:17:49;15.60;;;2.17;;
47367;SDS011;34646;47.964;7.982;2024-02-26T18:23:50;15.57;;;2.05;;
47367;SDS011;34646;47.964;7.982;2024-02-26T18:29:51;8.93;;;2.13;;
47367;SDS011;34646;47.964;7.982;2024-02-26T18:35:52;14.82;;;2.47;;
47367;SDS011;34646;47.964;7.982;2024-02-26T18:41:53;13.07;;;2.10;;
47367;SDS011;34646;47.964;7.982;2024-02-26T18:47:57;16.20;;;1.80;;
47367;SDS011;34646;47.964;7.982;2024-02-26T18:53:58;11.15;;;1.73;;
47367;SDS011;34646;47.964;7.982;2024-02-26T18:59:59;7.70;;;2.42;;
47367;SDS011;34646;47.964;7.982;2024-02-26T19:06:00;7.43;;;1.97;;
47367;SDS011;34646;47.964;7.982;2024-02-26T19:12:03;9.25;;;2.05;;
47367;SDS011;34646;47.964;7.982;2024-02-26T19:18:04;10.15;;;2.03;;
47367;SDS011;34646;47.964;7.982;2024-02-26T19:24:06;14.57;;;2.63;;
47367;SDS011;34646;47.964;7.982;2024-02-26T19:30:07;12.02;;;2.22;;
47367;SDS011;34646;47.964;7.982;2024-02-26T19:36:08;11.10;;;2.08;;
47367;SDS011;34646;47.964;7.982;2024-02-26T19:42:09;12.55;;;2.28;;
47367;SDS011;34646;47.964;7.982;2024-02-26T19:48:12;9.38;;;2.20;;
47367;SDS011;34646;47.964;7.982;2024-02-26T19:54:13;10.70;;;2.28;;
47367;SDS011;34646;47.964;7.982;2024-02-26T20:00:14;13.43;;;1.87;;
47367;SDS011;34646;47.964;7.982;2024-02-26T20:06:17;11.65;;;2.38;;
47367;SDS011;34646;47.964;7.982;2024-02-26T20:12:18;11.40;;;2.10;;
47367;SDS011;34646;47.964;7.982;2024-02-26T20:18:19;9.43;;;2.13;;
47367;SDS011;34646;47.964;7.982;2024-02-26T20:24:20;15.13;;;2.20;;
47367;SDS011;34646;47.964;7.982;2024-02-26T20:30:22;11.73;;;2.30;;
47367;SDS011;34646;47.964;7.982;2024-02-26T20:36:26;15.75;;;1.85;;
47367;SDS011;34646;47.964;7.982;2024-02-26T20:42:28;10.48;;;2.15;;
47367;SDS011;34646;47.964;7.982;2024-02-26T20:48:29;9.73;;;1.67;;
47367;SDS011;34646;47.964;7.982;2024-02-26T20:54:31;9.85;;;1.65;;
47367;SDS011;34646;47.964;7.982;2024-02-26T21:00:32;7.80;;;1.98;;
47367;SDS011;34646;47.964;7.982;2024-02-26T21:06:34;9.93;;;2.57;;
47367;SDS011;34646;47.964;7.982;2024-02-26T21:12:35;6.63;;;1.98;;
47367;SDS011;34646;47.964;7.982;2024-02-26T21:18:36;8.30;;;1.83;;
47367;SDS011;34646;47.964;7.982;2024-02-26T21:24:38;8.10;;;1.80;;
47367;SDS011;34646;47.964;7.982;2024-02-26T21:30:39;10.57;;;2.00;;
47367;SDS011;34646;47.964;7.982;2024-02-26T21:36:40;7.57;;;2.38;;
47367;SDS011;34646;47.964;7.982;2024-02-26T21:42:41;5.20;;;1.38;;
47367;SDS011;34646;47.964;7.982;2024-02-26T21:48:42;10.10;;;1.80;;
47367;SDS011;34646;47.964;7.982;2024-02-26T21:54:47;6.82;;;1.92;;
47367;SDS011;34646;47.964;7.982;2024-02-26T22:00:49;8.13;;;2.40;;
47367;SDS011;34646;47.964;7.982;2024-02-26T22:06:50;7.05;;;1.48;;
47367;SDS011;34646;47.964;7.982;2024-02-26T22:12:51;6.20;;;1.58;;
47367;SDS011;34646;47.964;7.982;2024-02-26T22:18:52;6.60;;;1.63;;
47367;SDS011;34646;47.964;7.982;2024-02-26T22:24:53;4.77;;;1.63;;
47367;SDS011;34646;47.964;7.982;2024-02-26T22:30:53;6.07;;;1.60;;
47367;SDS011;34646;47.964;7.982;2024-02-26T22:36:57;6.77;;;1.87;;
47367;SDS011;34646;47.964;7.982;2024-02-26T22:42:58;6.88;;;1.73;;
47367;SDS011;34646;47.964;7.982;2024-02-26T22:48:59;5.53;;;1.83;;
47367;SDS011;34646;47.964;7.982;2024-02-26T22:55:00;6.72;;;1.40;;
47367;SDS011;34646;47.964;7.982;2024-02-26T23:01:01;5.17;;;1.60;;
47367;SDS011;34646;47.964;7.982;2024-02-26T23:07:02;4.95;;;1.70;;
47367;SDS011;34646;47.964;7.982;2024-02-26T23:13:03;4.85;;;1.52;;
47367;SDS011;34646;47.964;7.982;2024-02-26T23:25:07;6.35;;;1.67;;
47367;SDS011;34646;47.964;7.982;2024-02-26T23:31:08;4.38;;;1.70;;
47367;SDS011;34646;47.964;7.982;2024-02-26T23:37:09;4.90;;;1.20;;
47367;SDS011;34646;47.964;7.982;2024-02-26T23:43:11;5.47;;;1.30;;
47367;SDS011;34646;47.964;7.982;2024-02-26T23:49:12;5.50;;;1.35;;
47367;SDS011;34646;47.964;7.982;2024-02-26T23:55:13;5.25;;;1.52;;
